createdAt,value
2023-05-13T00:01:03.063Z,81.42
2023-05-13T00:03:30.510Z,80.61
2023-05-13T00:05:58.010Z,80.33
2023-05-13T00:08:25.469Z,80.39
2023-05-13T00:10:54.204Z,81.20
2023-05-13T00:13:21.596Z,81.43
2023-05-13T00:15:49.106Z,82.16
2023-05-13T00:18:16.641Z,82.69
2023-05-13T00:20:44.037Z,82.73
2023-05-13T00:23:11.574Z,82.84
2023-05-13T00:25:38.990Z,82.83
2023-05-13T00:28:07.724Z,82.70
2023-05-13T00:30:35.158Z,83.34
2023-05-13T00:33:02.866Z,83.33
2023-05-13T00:35:30.216Z,83.31
2023-05-13T00:37:57.714Z,83.50
2023-05-13T00:40:25.660Z,82.44
2023-05-13T00:42:54.074Z,83.32
2023-05-13T00:45:22.923Z,84.09
2023-05-13T00:47:51.243Z,84.03
2023-05-13T00:50:18.909Z,84.11
2023-05-13T00:52:49.759Z,83.91
2023-05-13T00:55:17.864Z,83.42
2023-05-13T00:57:45.394Z,84.28
2023-05-13T01:00:13.774Z,84.50
2023-05-13T01:02:48.711Z,84.03
2023-05-13T01:05:36.584Z,84.31
2023-05-13T01:08:17.427Z,84.62
2023-05-13T01:10:50.130Z,83.95
2023-05-13T01:13:20.449Z,84.33
2023-05-13T01:15:52.890Z,83.76
2023-05-13T01:18:28.154Z,83.88
2023-05-13T01:20:56.207Z,83.49
2023-05-13T01:23:25.224Z,83.53
2023-05-13T01:25:52.733Z,83.91
2023-05-13T01:28:20.513Z,84.07
2023-05-13T01:30:52.555Z,84.24
2023-05-13T01:33:20.442Z,83.74
2023-05-13T01:35:48.472Z,84.50
2023-05-13T01:38:19.207Z,84.64
2023-05-13T01:40:51.891Z,84.60
2023-05-13T01:43:20.007Z,84.14
2023-05-13T01:45:48.030Z,84.45
2023-05-13T01:48:15.941Z,83.79
2023-05-13T01:50:47.334Z,83.43
2023-05-13T01:53:14.802Z,84.19
2023-05-13T01:55:42.253Z,83.51
2023-05-13T01:58:11.620Z,83.20
2023-05-13T02:00:40.094Z,83.63
2023-05-13T02:03:07.694Z,83.43
2023-05-13T02:05:36.725Z,83.53
2023-05-13T02:08:07.701Z,83.57
2023-05-13T02:10:35.106Z,83.22
2023-05-13T02:13:02.559Z,83.48
2023-05-13T02:15:31.332Z,83.20
2023-05-13T02:17:58.930Z,83.77
2023-05-13T02:20:26.526Z,82.83
2023-05-13T02:22:53.983Z,83.25
2023-05-13T02:25:21.368Z,82.72
2023-05-13T02:27:48.829Z,83.47
2023-05-13T02:30:16.380Z,83.31
2023-05-13T02:32:47.405Z,82.86
2023-05-13T02:35:15.068Z,83.30
2023-05-13T02:37:43.511Z,83.32
2023-05-13T02:40:12.789Z,83.53
2023-05-13T02:42:40.621Z,83.42
2023-05-13T02:45:09.937Z,83.68
2023-05-13T02:47:40.472Z,83.02
2023-05-13T02:50:10.191Z,83.72
2023-05-13T02:52:41.496Z,83.67
2023-05-13T02:55:09.722Z,83.29
2023-05-13T02:57:38.200Z,83.29
2023-05-13T03:00:08.654Z,83.59
2023-05-13T03:02:40.074Z,83.63
2023-05-13T03:05:08.510Z,83.60
2023-05-13T03:07:37.315Z,83.72
2023-05-13T03:10:06.772Z,83.43
2023-05-13T03:12:35.023Z,83.28
2023-05-13T03:15:04.056Z,82.96
2023-05-13T03:17:32.121Z,82.91
2023-05-13T03:19:59.573Z,83.85
2023-05-13T03:22:27.244Z,83.87
2023-05-13T03:24:57.168Z,83.54
2023-05-13T03:27:26.726Z,83.24
2023-05-13T03:29:54.257Z,83.48
2023-05-13T03:32:22.952Z,83.34
2023-05-13T03:34:50.364Z,83.59
2023-05-13T03:37:17.845Z,83.47
2023-05-13T03:39:45.330Z,83.78
2023-05-13T03:42:14.353Z,83.55
2023-05-13T03:44:41.858Z,83.43
2023-05-13T03:47:11.624Z,82.94
2023-05-13T03:49:39.246Z,82.82
2023-05-13T03:52:09.973Z,82.73
2023-05-13T03:54:37.449Z,82.93
2023-05-13T03:57:05.310Z,83.17
2023-05-13T03:59:34.050Z,82.83
2023-05-13T04:02:01.436Z,83.22
2023-05-13T04:04:29.091Z,82.90
2023-05-13T04:06:58.362Z,83.63
2023-05-13T04:09:25.767Z,82.82
2023-05-13T04:11:53.288Z,82.29
2023-05-13T04:14:20.896Z,82.46
2023-05-13T04:16:49.840Z,82.85
2023-05-13T04:19:19.374Z,82.22
2023-05-13T04:21:47.178Z,82.76
2023-05-13T04:24:14.664Z,82.49
2023-05-13T04:26:42.000Z,82.55
2023-05-13T04:29:09.354Z,83.11
2023-05-13T04:31:37.365Z,82.72
2023-05-13T04:34:06.284Z,81.76
2023-05-13T04:36:33.659Z,81.43
2023-05-13T04:39:01.022Z,81.92
2023-05-13T04:41:28.366Z,82.39
2023-05-13T04:43:55.809Z,82.89
2023-05-13T04:46:23.481Z,82.38
2023-05-13T04:48:52.208Z,82.38
2023-05-13T04:51:21.517Z,81.98
2023-05-13T04:53:49.786Z,82.00
2023-05-13T04:56:18.426Z,81.96
2023-05-13T04:58:45.950Z,82.19
2023-05-13T05:01:15.484Z,81.75
2023-05-13T05:03:43.070Z,81.86
2023-05-13T05:06:10.596Z,82.23
2023-05-13T05:08:39.350Z,82.42
2023-05-13T05:11:06.843Z,81.73
2023-05-13T05:13:36.217Z,82.35
2023-05-13T05:16:03.753Z,82.21
2023-05-13T05:18:31.923Z,81.44
2023-05-13T05:21:02.289Z,81.20
2023-05-13T05:23:30.075Z,81.13
2023-05-13T05:26:10.598Z,81.55
2023-05-13T05:28:42.447Z,81.53
2023-05-13T05:31:10.088Z,80.97
2023-05-13T05:33:40.796Z,80.93
2023-05-13T05:36:08.988Z,81.59
2023-05-13T05:38:36.635Z,80.82
2023-05-13T05:41:06.851Z,81.25
2023-05-13T05:43:43.065Z,80.81
2023-05-13T05:46:11.077Z,80.77
2023-05-13T05:48:38.690Z,80.72
2023-05-13T05:51:06.412Z,80.58
2023-05-13T05:53:37.656Z,80.41
2023-05-13T05:56:08.425Z,80.93
2023-05-13T05:58:36.269Z,80.44
2023-05-13T06:01:03.863Z,80.36
2023-05-13T06:03:31.303Z,79.53
2023-05-13T06:05:59.401Z,79.92
2023-05-13T06:08:30.263Z,80.30
2023-05-13T06:10:58.429Z,79.69
2023-05-13T06:13:27.951Z,79.79
2023-05-13T06:15:55.954Z,79.32
2023-05-13T06:18:23.600Z,79.42
2023-05-13T06:20:51.043Z,79.71
2023-05-13T06:23:19.339Z,79.98
2023-05-13T06:25:47.324Z,79.93
2023-05-13T06:28:14.815Z,79.61
2023-05-13T06:30:44.591Z,79.02
2023-05-13T06:33:15.079Z,78.93
2023-05-13T06:35:48.673Z,79.19
2023-05-13T06:38:18.238Z,78.61
2023-05-13T06:40:46.769Z,78.32
2023-05-13T06:43:16.537Z,77.54
2023-05-13T06:45:49.419Z,77.09
2023-05-13T06:48:17.027Z,76.97
2023-05-13T06:50:44.552Z,76.00
2023-05-13T06:53:12.550Z,76.42
2023-05-13T06:55:41.655Z,75.79
2023-05-13T06:58:10.027Z,75.75
2023-05-13T07:00:38.927Z,76.06
2023-05-13T07:03:08.589Z,75.68
2023-05-13T07:05:36.227Z,75.54
2023-05-13T07:08:07.041Z,75.30
2023-05-13T07:10:35.208Z,74.97
2023-05-13T07:13:03.021Z,74.44
2023-05-13T07:15:30.531Z,74.84
2023-05-13T07:17:58.009Z,73.46
2023-05-13T07:20:27.085Z,74.07
2023-05-13T07:22:54.557Z,73.82
2023-05-13T07:25:21.996Z,73.33
2023-05-13T07:27:49.472Z,72.92
2023-05-13T07:30:17.097Z,73.00
2023-05-13T07:32:47.631Z,72.42
2023-05-13T07:35:16.795Z,72.72
2023-05-13T07:37:45.540Z,74.81
2023-05-13T07:40:13.918Z,75.06
2023-05-13T07:42:41.464Z,75.17
2023-05-13T07:45:10.170Z,75.03
2023-05-13T07:47:37.774Z,74.86
2023-05-13T07:50:06.327Z,74.99
2023-05-13T07:52:33.675Z,75.20
2023-05-13T07:55:02.587Z,75.24
2023-05-13T07:57:30.072Z,74.98
2023-05-13T07:59:57.590Z,74.37
2023-05-13T08:02:25.044Z,74.59
2023-05-13T08:04:52.564Z,74.54
2023-05-13T08:07:20.039Z,74.76
2023-05-13T08:09:47.477Z,74.75
2023-05-13T08:12:16.325Z,74.53
2023-05-13T08:14:43.768Z,74.18
2023-05-13T08:17:12.070Z,73.42
2023-05-13T08:19:40.380Z,73.77
2023-05-13T08:22:07.869Z,73.71
2023-05-13T08:24:35.266Z,73.59
2023-05-13T08:27:03.355Z,73.96
2023-05-13T08:29:32.130Z,74.60
2023-05-13T08:32:03.002Z,74.71
2023-05-13T08:34:30.585Z,74.11
2023-05-13T08:36:58.042Z,73.76
2023-05-13T08:39:25.529Z,73.85
2023-05-13T08:41:57.743Z,73.36
2023-05-13T08:44:28.670Z,73.42
2023-05-13T08:47:06.280Z,73.00
2023-05-13T08:49:34.647Z,72.95
2023-05-13T08:52:02.117Z,73.27
2023-05-13T08:54:30.216Z,70.52
2023-05-13T08:56:57.665Z,70.81
2023-05-13T08:59:25.371Z,68.42
2023-05-13T09:01:53.650Z,68.64
2023-05-13T09:04:22.931Z,67.58
2023-05-13T09:06:50.557Z,68.64
2023-05-13T09:09:18.110Z,68.62
2023-05-13T09:11:47.370Z,69.46
2023-05-13T09:14:19.396Z,68.69
2023-05-13T09:16:47.502Z,69.14
2023-05-13T09:19:15.079Z,68.81
2023-05-13T09:21:44.285Z,68.40
2023-05-13T09:24:18.874Z,68.30
2023-05-13T09:26:46.476Z,68.59
2023-05-13T09:29:22.103Z,68.98
2023-05-13T09:31:51.733Z,69.20
2023-05-13T09:34:26.133Z,69.51
2023-05-13T09:36:59.682Z,67.69
2023-05-13T09:39:27.679Z,67.51
2023-05-13T09:41:55.295Z,66.67
2023-05-13T09:44:23.041Z,67.81
2023-05-13T09:46:58.575Z,67.42
2023-05-13T09:49:29.167Z,66.59
2023-05-13T09:51:58.132Z,67.13
2023-05-13T09:54:34.491Z,66.42
2023-05-13T09:57:02.123Z,69.06
2023-05-13T09:59:32.264Z,70.02
2023-05-13T10:02:05.749Z,70.51
2023-05-13T10:04:36.744Z,70.19
2023-05-13T10:07:06.283Z,70.83
2023-05-13T10:09:38.879Z,70.26
2023-05-13T10:12:08.522Z,69.31
2023-05-13T10:14:37.197Z,70.20
2023-05-13T10:17:06.578Z,69.68
2023-05-13T10:19:34.845Z,69.43
2023-05-13T10:22:02.914Z,69.75
2023-05-13T10:24:32.528Z,70.87
2023-05-13T10:27:01.846Z,70.52
2023-05-13T10:29:29.808Z,70.41
2023-05-13T10:31:58.499Z,70.63
2023-05-13T10:34:27.276Z,70.08
2023-05-13T10:37:18.750Z,70.98
2023-05-13T10:40:12.826Z,70.96
2023-05-13T10:42:42.924Z,70.05
2023-05-13T10:45:11.198Z,70.15
2023-05-13T10:47:39.230Z,70.40
2023-05-13T10:50:22.027Z,70.49
2023-05-13T10:52:50.062Z,70.60
2023-05-13T10:55:20.495Z,71.14
2023-05-13T10:58:05.230Z,71.30
2023-05-13T11:00:36.206Z,71.91
2023-05-13T11:03:15.197Z,71.27
2023-05-13T11:05:45.837Z,70.83
2023-05-13T11:08:37.110Z,71.40
2023-05-13T11:11:30.588Z,71.25
2023-05-13T11:14:08.808Z,71.44
2023-05-13T11:16:37.333Z,71.78
2023-05-13T11:19:09.150Z,71.38
2023-05-13T11:21:39.650Z,71.22
2023-05-13T11:24:08.075Z,71.24
2023-05-13T11:26:45.451Z,71.60
2023-05-13T11:29:13.131Z,70.15
2023-05-13T11:31:48.874Z,70.34
2023-05-13T11:34:17.797Z,70.98
2023-05-13T11:36:47.657Z,70.66
2023-05-13T11:39:16.849Z,71.05
2023-05-13T11:41:47.369Z,70.29
2023-05-13T11:44:16.563Z,70.56
2023-05-13T11:46:51.668Z,69.01
2023-05-13T11:49:35.227Z,70.00
2023-05-13T11:52:03.835Z,70.36
2023-05-13T11:54:31.526Z,70.03
2023-05-13T11:57:00.732Z,71.00
2023-05-13T11:59:35.814Z,69.57
2023-05-13T12:02:09.371Z,69.84
2023-05-13T12:04:36.897Z,70.26
2023-05-13T12:07:11.529Z,69.25
2023-05-13T12:09:38.922Z,70.31
2023-05-13T12:12:08.110Z,69.92
2023-05-13T12:14:35.643Z,69.06
2023-05-13T12:17:03.626Z,69.35
2023-05-13T12:19:31.387Z,69.93
2023-05-13T12:21:59.557Z,69.90
2023-05-13T12:24:27.208Z,70.82
2023-05-13T12:27:05.000Z,69.69
2023-05-13T12:29:42.941Z,70.47
2023-05-13T12:32:11.946Z,69.24
2023-05-13T12:34:39.476Z,68.87
2023-05-13T12:37:11.443Z,69.10
2023-05-13T12:39:39.064Z,68.75
2023-05-13T12:42:07.148Z,69.76
2023-05-13T12:44:34.660Z,69.48
2023-05-13T12:47:08.225Z,69.94
2023-05-13T12:49:36.010Z,70.66
2023-05-13T12:52:04.919Z,69.07
2023-05-13T12:54:32.418Z,70.03
2023-05-13T12:56:59.975Z,70.54
2023-05-13T12:59:29.365Z,69.97
2023-05-13T13:01:57.485Z,70.47
2023-05-13T13:04:26.367Z,68.63
2023-05-13T13:06:53.980Z,69.23
2023-05-13T13:09:21.418Z,68.63
2023-05-13T13:11:48.901Z,67.67
2023-05-13T13:14:16.282Z,67.45
2023-05-13T13:16:44.474Z,67.70
2023-05-13T13:19:12.151Z,66.67
2023-05-13T13:21:41.536Z,65.43
2023-05-13T13:24:09.068Z,65.42
2023-05-13T13:26:36.578Z,65.17
2023-05-13T13:29:04.040Z,65.16
2023-05-13T13:31:31.531Z,63.96
2023-05-13T13:34:04.086Z,64.04
2023-05-13T13:36:33.735Z,63.70
2023-05-13T13:39:02.507Z,63.96
2023-05-13T13:41:30.027Z,63.61
2023-05-13T13:43:57.398Z,64.89
2023-05-13T13:46:24.912Z,63.37
2023-05-13T13:48:52.347Z,64.35
2023-05-13T13:51:19.808Z,64.28
2023-05-13T13:53:49.096Z,63.81
2023-05-13T13:56:18.012Z,64.09
2023-05-13T13:58:45.375Z,64.34
2023-05-13T14:01:12.759Z,64.92
2023-05-13T14:03:40.342Z,65.72
2023-05-13T14:06:16.847Z,66.71
2023-05-13T14:08:44.341Z,67.95
2023-05-13T14:11:11.766Z,68.19
2023-05-13T14:13:40.724Z,68.58
2023-05-13T14:16:08.253Z,68.57
2023-05-13T14:18:35.786Z,69.25
2023-05-13T14:21:06.058Z,68.35
2023-05-13T14:23:33.493Z,68.17
2023-05-13T14:26:00.983Z,67.33
2023-05-13T14:28:31.433Z,67.21
2023-05-13T14:31:00.545Z,67.50
2023-05-13T14:33:28.063Z,68.57
2023-05-13T14:35:56.290Z,67.96
2023-05-13T14:38:23.819Z,67.22
2023-05-13T14:40:51.181Z,68.15
2023-05-13T14:43:18.727Z,67.43
2023-05-13T14:45:46.171Z,66.95
2023-05-13T14:48:16.372Z,66.46
2023-05-13T14:50:45.147Z,67.24
2023-05-13T14:53:12.924Z,64.54
2023-05-13T14:55:40.444Z,65.24
2023-05-13T14:58:09.123Z,65.22
2023-05-13T15:00:41.514Z,65.19
2023-05-13T15:03:09.521Z,65.31
2023-05-13T15:05:38.794Z,64.97
2023-05-13T15:08:06.415Z,67.09
2023-05-13T15:10:33.831Z,65.62
2023-05-13T15:13:01.205Z,65.99
2023-05-13T15:15:28.680Z,65.97
2023-05-13T15:17:56.129Z,67.59
2023-05-13T15:20:23.975Z,67.60
2023-05-13T15:22:52.960Z,67.36
2023-05-13T15:25:20.791Z,66.89
2023-05-13T15:27:48.374Z,66.87
2023-05-13T15:30:15.983Z,66.96
2023-05-13T15:32:43.432Z,67.89
2023-05-13T15:35:11.126Z,69.75
2023-05-13T15:37:42.691Z,67.03
2023-05-13T15:40:12.510Z,66.60
2023-05-13T15:42:40.021Z,66.23
2023-05-13T15:45:08.409Z,66.74
2023-05-13T15:47:36.095Z,67.81
2023-05-13T15:50:05.326Z,67.50
2023-05-13T15:52:32.697Z,68.50
2023-05-13T15:55:00.198Z,67.10
2023-05-13T15:57:28.970Z,67.99
2023-05-13T15:59:56.384Z,67.55
2023-05-13T16:02:23.795Z,69.41
2023-05-13T16:04:51.311Z,68.46
2023-05-13T16:07:18.820Z,69.47
2023-05-13T16:09:46.273Z,69.20
2023-05-13T16:12:13.700Z,68.90
2023-05-13T16:14:42.698Z,69.81
2023-05-13T16:17:10.783Z,68.41
2023-05-13T16:19:38.187Z,68.02
2023-05-13T16:22:28.031Z,68.12
2023-05-13T16:24:58.644Z,69.88
2023-05-13T16:27:26.502Z,69.57
2023-05-13T16:29:56.240Z,68.61
2023-05-13T16:32:24.078Z,67.09
2023-05-13T16:34:52.167Z,68.47
2023-05-13T16:37:19.623Z,67.60
2023-05-13T16:39:47.465Z,67.97
2023-05-13T16:42:15.555Z,68.21
2023-05-13T16:44:43.112Z,67.29
2023-05-13T16:47:14.461Z,66.86
2023-05-13T16:49:45.368Z,67.48
2023-05-13T16:52:12.730Z,67.60
2023-05-13T16:54:40.227Z,66.30
2023-05-13T16:57:07.718Z,65.91
2023-05-13T16:59:35.210Z,66.12
2023-05-13T17:02:02.940Z,66.72
2023-05-13T17:04:31.793Z,66.47
2023-05-13T17:06:59.492Z,67.30
2023-05-13T17:09:28.910Z,67.62
2023-05-13T17:11:56.599Z,68.17
2023-05-13T17:14:24.183Z,69.33
2023-05-13T17:16:51.679Z,69.22
2023-05-13T17:19:19.499Z,68.18
2023-05-13T17:21:48.498Z,69.02
2023-05-13T17:24:16.021Z,69.33
2023-05-13T17:26:43.437Z,70.59
2023-05-13T17:29:10.910Z,69.99
2023-05-13T17:31:38.496Z,69.58
2023-05-13T17:34:08.652Z,69.89
2023-05-13T17:36:36.092Z,70.23
2023-05-13T17:39:04.926Z,70.70
2023-05-13T17:41:32.366Z,69.39
2023-05-13T17:44:02.694Z,70.66
2023-05-13T17:46:30.409Z,69.94
2023-05-13T17:48:57.909Z,71.11
2023-05-13T17:51:28.536Z,70.33
2023-05-13T17:53:55.999Z,69.79
2023-05-13T17:56:25.261Z,70.36
2023-05-13T17:58:53.055Z,71.75
2023-05-13T18:01:21.751Z,71.26
2023-05-13T18:03:49.334Z,72.48
2023-05-13T18:06:16.890Z,72.76
2023-05-13T18:08:44.571Z,74.33
2023-05-13T18:11:12.044Z,71.91
2023-05-13T18:13:40.912Z,72.91
2023-05-13T18:16:10.314Z,72.75
2023-05-13T18:18:37.839Z,72.43
2023-05-13T18:21:05.296Z,72.00
2023-05-13T18:23:35.788Z,71.61
2023-05-13T18:26:03.698Z,72.54
2023-05-13T18:28:31.307Z,72.48
2023-05-13T18:31:00.164Z,73.20
2023-05-13T18:33:27.707Z,74.48
2023-05-13T18:35:55.163Z,74.09
2023-05-13T18:38:22.777Z,74.60
2023-05-13T18:40:50.285Z,74.83
2023-05-13T18:43:17.724Z,75.54
2023-05-13T18:45:45.769Z,76.83
2023-05-13T18:48:14.584Z,76.70
2023-05-13T18:50:42.116Z,77.64
2023-05-13T18:53:09.545Z,78.34
2023-05-13T18:55:39.583Z,77.58
2023-05-13T18:58:07.174Z,77.94
2023-05-13T19:00:34.637Z,77.97
2023-05-13T19:03:02.186Z,78.20
2023-05-13T19:05:31.175Z,77.75
2023-05-13T19:08:00.434Z,78.55
2023-05-13T19:10:27.864Z,78.64
2023-05-13T19:12:55.242Z,79.04
2023-05-13T19:15:25.091Z,79.46
2023-05-13T19:17:52.841Z,80.00
2023-05-13T19:20:20.446Z,79.96
2023-05-13T19:22:49.339Z,79.84
2023-05-13T19:25:19.854Z,80.47
2023-05-13T19:27:49.304Z,80.34
2023-05-13T19:30:16.819Z,80.68
2023-05-13T19:32:44.365Z,80.70
2023-05-13T19:35:11.912Z,80.26
2023-05-13T19:37:39.380Z,80.48
2023-05-13T19:40:09.191Z,80.96
2023-05-13T19:42:36.738Z,81.10
2023-05-13T19:45:06.334Z,81.76
2023-05-13T19:47:33.972Z,82.17
2023-05-13T19:50:05.169Z,82.56
2023-05-13T19:52:33.049Z,82.69
2023-05-13T19:55:00.608Z,83.95
2023-05-13T19:57:30.170Z,85.20
2023-05-13T19:59:58.360Z,85.44
2023-05-13T20:02:25.983Z,85.82
2023-05-13T20:04:53.443Z,85.16
2023-05-13T20:07:20.824Z,85.79
2023-05-13T20:09:48.267Z,86.16
2023-05-13T20:12:15.712Z,86.22
2023-05-13T20:14:46.016Z,85.96
2023-05-13T20:17:17.296Z,85.70
2023-05-13T20:19:44.962Z,86.34
2023-05-13T20:22:12.497Z,86.96
2023-05-13T20:24:40.134Z,87.04
2023-05-13T20:27:07.680Z,86.94
2023-05-13T20:29:36.430Z,87.46
2023-05-13T20:32:11.987Z,88.04
2023-05-13T20:34:39.678Z,86.85
2023-05-13T20:37:07.158Z,87.52
2023-05-13T20:39:34.616Z,87.39
2023-05-13T20:42:02.137Z,86.69
2023-05-13T20:44:29.698Z,86.79
2023-05-13T20:46:57.299Z,87.10
2023-05-13T20:49:26.012Z,87.55
2023-05-13T20:51:53.527Z,87.34
2023-05-13T20:54:20.918Z,87.05
2023-05-13T20:56:48.316Z,87.41
2023-05-13T20:59:15.718Z,87.54
2023-05-13T21:01:47.270Z,87.75
2023-05-13T21:04:14.963Z,87.38
2023-05-13T21:06:43.939Z,87.36
2023-05-13T21:09:11.569Z,87.45
2023-05-13T21:11:38.955Z,87.04
2023-05-13T21:14:06.434Z,87.36
2023-05-13T21:16:35.915Z,87.78
2023-05-13T21:19:03.388Z,87.54
2023-05-13T21:21:32.155Z,87.04
2023-05-13T21:24:01.016Z,87.70
2023-05-13T21:26:28.493Z,87.22
2023-05-13T21:28:55.834Z,88.34
2023-05-13T21:31:23.730Z,88.20
2023-05-13T21:33:51.272Z,88.06
2023-05-13T21:36:21.614Z,86.45
2023-05-13T21:38:49.307Z,87.79
2023-05-13T21:41:19.988Z,87.49
2023-05-13T21:43:47.442Z,87.68
2023-05-13T21:46:14.844Z,87.67
2023-05-13T21:48:42.235Z,88.01
2023-05-13T21:51:09.599Z,88.56
2023-05-13T21:53:37.031Z,88.35
2023-05-13T21:56:04.991Z,88.85
2023-05-13T21:58:33.803Z,88.52
2023-05-13T22:01:01.802Z,89.63
2023-05-13T22:03:32.259Z,89.88
2023-05-13T22:06:00.170Z,89.93
2023-05-13T22:08:27.687Z,90.10
2023-05-13T22:10:55.210Z,89.75
2023-05-13T22:13:22.664Z,90.30
2023-05-13T22:15:51.703Z,90.22
2023-05-13T22:18:19.363Z,90.27
2023-05-13T22:20:46.774Z,90.45
2023-05-13T22:23:14.302Z,90.04
2023-05-13T22:25:41.719Z,90.40
2023-05-13T22:28:09.136Z,90.85
2023-05-13T22:30:36.465Z,89.98
2023-05-13T22:33:05.362Z,90.04
2023-05-13T22:35:36.251Z,90.09
2023-05-13T22:38:04.155Z,90.13
2023-05-13T22:40:31.663Z,89.58
2023-05-13T22:42:59.154Z,89.75
2023-05-13T22:45:26.696Z,90.23
2023-05-13T22:47:55.516Z,90.80
2023-05-13T22:50:24.818Z,90.13
2023-05-13T22:52:52.458Z,90.45
2023-05-13T22:55:19.893Z,90.05
2023-05-13T22:57:48.082Z,90.15
2023-05-13T23:00:16.428Z,90.32
2023-05-13T23:02:43.964Z,90.53
2023-05-13T23:05:11.487Z,90.37
2023-05-13T23:07:40.227Z,90.08
2023-05-13T23:10:08.310Z,90.12
2023-05-13T23:12:35.854Z,90.63
2023-05-13T23:15:04.116Z,90.88
2023-05-13T23:17:31.686Z,90.88
2023-05-13T23:19:59.317Z,91.40
2023-05-13T23:22:26.775Z,90.76
2023-05-13T23:24:55.532Z,91.22
2023-05-13T23:27:22.921Z,91.00
2023-05-13T23:29:50.325Z,91.17
2023-05-13T23:32:19.012Z,90.83
2023-05-13T23:34:46.461Z,90.44
2023-05-13T23:37:15.585Z,91.01
2023-05-13T23:39:43.174Z,90.44
2023-05-13T23:42:11.960Z,90.46
2023-05-13T23:44:39.321Z,90.02
2023-05-13T23:47:07.132Z,89.68
2023-05-13T23:49:34.617Z,90.38
2023-05-13T23:52:01.972Z,89.87
2023-05-13T23:54:29.370Z,89.74
2023-05-13T23:56:56.772Z,90.18
2023-05-13T23:59:25.656Z,89.93
